KGRB

Green Bay-Austin Straubel International Airport

Green Bay, Wisconsin, USA
KGRB 181733Z 1818/1918 35007KT P6SM SCT090 FM182300 04011KT P6SM OVC040 FM190300 04012KT P6SM -SN OVC030 FM190500 03011G16KT P6SM -SHSN OVC029 FM190700 02010G17KT P6SM -SHSN OVC040 FM191500 02012G19KT P6SM SCT050
Issued Valid From Valid To
Jan-18 @ 17:33 UTC
(3 hours ago)
Jan-18 @ 18:00 UTC
(3 hours ago)
Jan-19 @ 18:00 UTC
(in 21 hours)
Jan-18 @ 18:00 to Jan-18 @ 23:00
KGRB 181733Z 1818/1918 35007KT P6SM SCT090
Wind Visibility Clouds
350° at 7 knots Greater than 6 miles
  • Scattered at 9,000' AGL
From Jan-18 @ 23:00 to Jan-19 @ 03:00
FM182300 04011KT P6SM OVC040
Wind Visibility Clouds
40° at 11 knots Greater than 6 miles
  • Overcast at 4,000' AGL
From Jan-19 @ 03:00 to Jan-19 @ 05:00
FM190300 04012KT P6SM -SN OVC030
Wind Visibility Clouds Conditions
40° at 12 knots Greater than 6 miles
  • Overcast at 3,000' AGL
  • Light Snow
From Jan-19 @ 05:00 to Jan-19 @ 07:00
FM190500 03011G16KT P6SM -SHSN OVC029
Wind Visibility Clouds Conditions
30° at 11 knots
 Gusting to 16 knots
Greater than 6 miles
  • Overcast at 2,900' AGL
  • Light Snow
From Jan-19 @ 07:00 to Jan-19 @ 15:00
FM190700 02010G17KT P6SM -SHSN OVC040
Wind Visibility Clouds Conditions
20° at 10 knots
 Gusting to 17 knots
Greater than 6 miles
  • Overcast at 4,000' AGL
  • Light Snow
From Jan-19 @ 15:00 to Jan-19 @ 18:00
FM191500 02012G19KT P6SM SCT050
Wind Visibility Clouds
20° at 12 knots
 Gusting to 19 knots
Greater than 6 miles
  • Scattered at 5,000' AGL
KGRB 181733Z 1818/1918 35007KT P6SM SCT090 FM182300 04011KT P6SM OVC040 FM190300 04012KT P6SM -SN OVC030 FM190500 03011G16KT P6SM -SHSN OVC029 FM190700 02010G17KT P6SM -SHSN OVC040 FM191500 02012G19KT P6SM SCT050
Issued Jan-18 @ 17:33 UTC
(3 hours ago)
Valid From Jan-18 @ 18:00 UTC
(3 hours ago)
Valid To Jan-19 @ 18:00 UTC
(in 21 hours)
Jan-18 @ 18:00 - Jan-18 @ 23:00
Wind Visibility
350° at 7 knots Greater than 6 miles
Clouds
  • Scattered at 9,000' AGL
From Jan-18 @ 23:00 - Jan-19 @ 03:00
Wind Visibility
40° at 11 knots Greater than 6 miles
Clouds
  • Overcast at 4,000' AGL
From Jan-19 @ 03:00 - Jan-19 @ 05:00
Wind Visibility
40° at 12 knots Greater than 6 miles
Clouds
  • Overcast at 3,000' AGL
Conditions
  • Light Snow
From Jan-19 @ 05:00 - Jan-19 @ 07:00
Wind Visibility
30° at 11 knots
 Gusting to 16 knots
Greater than 6 miles
Clouds
  • Overcast at 2,900' AGL
Conditions
  • Light Snow
From Jan-19 @ 07:00 - Jan-19 @ 15:00
Wind Visibility
20° at 10 knots
 Gusting to 17 knots
Greater than 6 miles
Clouds
  • Overcast at 4,000' AGL
Conditions
  • Light Snow
From Jan-19 @ 15:00 - Jan-19 @ 18:00
Wind Visibility
20° at 12 knots
 Gusting to 19 knots
Greater than 6 miles
Clouds
  • Scattered at 5,000' AGL